Time;durP1;ratioP1;P1;durP2;ratioP2;P2;SDS_P1;SDS_P2;PMS_P1;PMS_P2;Temp;Humidity;BMP_temperature;BMP_pressure;BME280_temperature;BME280_humidity;BME280_pressure;Samples;Min_cycle;Max_cycle;Signal;HPM_P1;HPM_P2
2021/10/07 00:02:14;;;;;;;3.83;1.95;;;;;;;20.83;52.29;102229.91;4993896;28;20034;-59
2021/10/07 00:04:39;;;;;;;3.17;1.67;;;;;;;20.81;52.20;102234.47;4995007;28;20026;-57
2021/10/07 00:07:05;;;;;;;4.35;2.28;;;;;;;20.80;52.33;102234.59;4994664;28;20037;-59
2021/10/07 00:09:31;;;;;;;3.50;1.80;;;;;;;20.78;52.19;102237.34;4994146;28;20027;-59
2021/10/07 00:11:56;;;;;;;3.47;1.95;;;;;;;20.77;52.24;102240.94;4995662;28;20034;-59
2021/10/07 00:14:22;;;;;;;3.50;1.95;;;;;;;20.76;52.24;102247.22;4994612;28;20031;-58
2021/10/07 00:16:47;;;;;;;3.97;2.00;;;;;;;20.75;52.18;102248.16;4994114;28;20517;-59
2021/10/07 00:19:12;;;;;;;3.53;1.77;;;;;;;20.74;52.31;102248.25;4994450;28;20292;-58
2021/10/07 00:21:38;;;;;;;4.85;2.03;;;;;;;20.73;52.20;102250.06;4994492;28;20026;-59
2021/10/07 00:24:07;;;;;;;4.10;2.20;;;;;;;20.73;52.37;102257.16;4993867;28;20061;-59
2021/10/07 00:26:42;;;;;;;3.13;1.80;;;;;;;20.71;52.30;102262.59;4994955;28;20382;-59
2021/10/07 00:32:04;;;;;;;4.43;2.00;;;;;;;20.71;52.31;102270.53;4994833;28;20033;-59
2021/10/07 00:39:23;;;;;;;3.65;2.03;;;;;;;20.67;52.27;102273.50;4994262;28;20362;-59
2021/10/07 00:41:48;;;;;;;4.28;2.08;;;;;;;20.67;52.24;102271.69;4993827;28;20129;-59
2021/10/07 00:44:13;;;;;;;4.07;2.20;;;;;;;20.67;52.30;102268.22;4993374;28;20038;-58
2021/10/07 00:46:52;;;;;;;3.30;2.00;;;;;;;20.64;52.28;102272.75;4994482;28;20038;-59
2021/10/07 00:49:19;;;;;;;4.93;1.90;;;;;;;20.64;52.28;102274.56;4994107;28;20189;-60
2021/10/07 00:51:45;;;;;;;4.47;2.38;;;;;;;20.63;52.10;102267.53;4993754;28;20446;-58
2021/10/07 00:54:12;;;;;;;3.58;1.92;;;;;;;20.62;52.26;102277.28;4995107;28;20127;-59
2021/10/07 00:56:41;;;;;;;3.30;1.70;;;;;;;20.62;52.23;102277.28;4995625;28;20065;-59
2021/10/07 00:59:06;;;;;;;3.55;2.03;;;;;;;20.61;52.20;102272.09;4994074;28;20047;-58
2021/10/07 01:01:38;;;;;;;4.35;1.83;;;;;;;20.60;52.40;102275.69;4994143;28;20049;-59
2021/10/07 01:04:04;;;;;;;3.03;1.58;;;;;;;20.59;52.28;102277.50;4993406;28;20070;-59
2021/10/07 01:06:37;;;;;;;3.30;1.70;;;;;;;20.58;52.22;102273.13;4993947;28;20382;-59
2021/10/07 01:09:04;;;;;;;3.10;1.70;;;;;;;20.57;52.17;102273.25;4993979;28;20073;-58
2021/10/07 01:11:29;;;;;;;3.33;1.52;;;;;;;20.57;52.22;102276.75;4993580;28;20113;-59
2021/10/07 01:13:55;;;;;;;3.08;1.70;;;;;;;20.56;52.24;102274.22;4994339;28;20035;-58
2021/10/07 01:16:20;;;;;;;2.60;1.48;;;;;;;20.55;52.23;102280.44;4993552;28;20482;-58
2021/10/07 01:18:46;;;;;;;3.13;1.67;;;;;;;20.54;52.14;102290.22;4993210;28;20026;-58
2021/10/07 01:21:15;;;;;;;3.40;1.77;;;;;;;20.52;52.23;102281.53;4993868;28;20165;-58
2021/10/07 01:23:41;;;;;;;2.88;1.67;;;;;;;20.53;52.24;102285.84;4993772;28;20022;-58
2021/10/07 01:26:08;;;;;;;2.67;1.52;;;;;;;20.53;52.23;102285.84;4993178;28;20029;-58
2021/10/07 01:28:36;;;;;;;3.17;1.50;;;;;;;20.53;52.06;102288.50;4994118;28;20038;-59
2021/10/07 01:31:01;;;;;;;3.33;1.70;;;;;;;20.53;52.06;102291.16;4994288;28;20027;-58
2021/10/07 01:33:30;;;;;;;2.83;1.50;;;;;;;20.52;52.19;102294.78;4993207;28;20121;-59
2021/10/07 01:35:55;;;;;;;2.95;1.58;;;;;;;20.51;52.03;102295.72;4993632;28;20019;-60
2021/10/07 01:38:20;;;;;;;2.70;1.50;;;;;;;20.50;52.04;102294.00;4993218;28;20034;-59
2021/10/07 01:40:45;;;;;;;3.30;1.60;;;;;;;20.48;52.12;102304.69;4992593;28;20279;-58
2021/10/07 01:43:11;;;;;;;2.95;1.50;;;;;;;20.47;52.01;102297.72;4992998;28;20038;-58
2021/10/07 01:45:36;;;;;;;2.92;1.50;;;;;;;20.48;52.10;102298.56;4993886;28;20053;-59
2021/10/07 01:48:01;;;;;;;2.65;1.40;;;;;;;20.47;52.13;102302.16;4992937;28;20144;-59
2021/10/07 01:50:26;;;;;;;2.63;1.50;;;;;;;20.46;52.25;102298.66;4993122;28;20117;-59
2021/10/07 01:52:55;;;;;;;3.00;1.50;;;;;;;20.45;52.33;102304.06;4993564;28;20022;-59
2021/10/07 01:55:20;;;;;;;3.55;1.60;;;;;;;20.45;52.24;102298.78;4992367;28;20282;-58
2021/10/07 01:57:45;;;;;;;3.00;1.27;;;;;;;20.43;51.98;102293.59;4993106;28;20035;-59
2021/10/07 02:00:12;;;;;;;2.80;1.52;;;;;;;20.44;52.01;102299.72;4992149;28;20292;-59
2021/10/07 02:02:41;;;;;;;3.28;1.30;;;;;;;20.44;52.21;102305.00;4992884;28;20045;-61
2021/10/07 02:05:08;;;;;;;2.53;1.25;;;;;;;20.42;52.17;102299.00;4992872;28;20524;-59
2021/10/07 02:07:33;;;;;;;3.10;1.52;;;;;;;20.42;51.93;102302.47;4992597;28;20210;-58
2021/10/07 02:09:59;;;;;;;3.67;1.38;;;;;;;20.43;52.12;102308.63;4993197;28;20227;-59
2021/10/07 02:12:27;;;;;;;3.28;1.50;;;;;;;20.42;52.16;102312.22;4992808;28;20467;-58
2021/10/07 02:14:53;;;;;;;2.88;1.30;;;;;;;20.41;52.04;102299.94;4992556;28;20033;-59
2021/10/07 02:17:18;;;;;;;2.88;1.52;;;;;;;20.41;52.08;102313.16;4992961;28;20018;-59
2021/10/07 02:19:43;;;;;;;2.67;1.57;;;;;;;20.39;52.06;102310.63;4993094;28;20128;-59
2021/10/07 02:22:08;;;;;;;3.53;1.63;;;;;;;20.38;52.05;102313.41;4992092;28;20283;-58
2021/10/07 02:24:34;;;;;;;3.40;1.70;;;;;;;20.37;52.17;102325.78;4992920;28;20217;-58
2021/10/07 02:26:59;;;;;;;3.33;1.52;;;;;;;20.37;51.96;102323.13;4992929;28;20290;-59
2021/10/07 02:29:24;;;;;;;2.42;1.23;;;;;;;20.36;52.04;102321.44;4992206;28;20042;-58
2021/10/07 02:31:50;;;;;;;2.95;1.60;;;;;;;20.36;52.10;102325.88;4993069;28;20110;-57
2021/10/07 02:34:15;;;;;;;2.58;1.30;;;;;;;20.35;52.03;102327.69;4992190;28;20121;-59
2021/10/07 02:36:41;;;;;;;3.20;1.40;;;;;;;20.35;52.10;102324.19;4992579;28;20030;-57
2021/10/07 02:39:06;;;;;;;3.25;1.50;;;;;;;20.35;52.01;102329.50;4992459;28;20299;-59
2021/10/07 02:41:31;;;;;;;2.57;1.27;;;;;;;20.35;52.00;102332.16;4992789;28;20027;-59
2021/10/07 02:43:57;;;;;;;3.13;1.50;;;;;;;20.33;52.10;102342.84;4992150;28;20655;-58
2021/10/07 02:46:23;;;;;;;3.50;1.52;;;;;;;20.33;51.88;102345.47;4992699;28;20080;-58
2021/10/07 02:48:49;;;;;;;2.63;1.50;;;;;;;20.32;52.06;102342.94;4993080;28;20030;-59
2021/10/07 02:51:14;;;;;;;2.97;1.40;;;;;;;20.31;52.12;102344.72;4991640;28;20482;-59
2021/10/07 02:53:42;;;;;;;2.80;1.50;;;;;;;20.30;51.97;102341.22;4992905;28;20102;-58
2021/10/07 02:56:07;;;;;;;3.53;1.55;;;;;;;20.31;52.23;102344.72;4992462;28;20026;-58
2021/10/07 02:58:34;;;;;;;3.50;1.60;;;;;;;20.30;51.87;102348.34;4992176;28;20398;-58
2021/10/07 03:00:59;;;;;;;2.80;1.40;;;;;;;20.29;51.99;102349.28;4993041;28;20609;-57
2021/10/07 03:03:25;;;;;;;2.83;1.33;;;;;;;20.28;52.04;102353.72;4991883;28;20037;-59
2021/10/07 03:05:50;;;;;;;3.17;1.42;;;;;;;20.28;52.12;102356.38;4994125;28;20042;-59
2021/10/07 03:08:15;;;;;;;3.23;1.53;;;;;;;20.28;51.91;102355.50;4996226;28;20053;-59
2021/10/07 03:10:41;;;;;;;3.58;1.45;;;;;;;20.28;52.22;102361.66;4995691;28;20319;-60
2021/10/07 03:13:06;;;;;;;3.08;1.50;;;;;;;20.27;52.09;102354.66;4996112;28;20030;-64
2021/10/07 03:15:31;;;;;;;2.45;1.40;;;;;;;20.27;52.13;102367.91;4996664;28;20073;-59
2021/10/07 03:17:57;;;;;;;4.28;1.50;;;;;;;20.26;52.01;102368.00;4995896;28;20515;-60
2021/10/07 03:20:22;;;;;;;3.50;1.60;;;;;;;20.26;52.09;102373.31;4996077;28;20509;-59
2021/10/07 03:22:47;;;;;;;2.92;1.55;;;;;;;20.24;51.97;102365.47;4996417;28;20303;-59
2021/10/07 03:25:13;;;;;;;3.00;1.60;;;;;;;20.25;52.03;102372.47;4995204;28;20097;-59
2021/10/07 03:27:42;;;;;;;2.70;1.40;;;;;;;20.24;52.10;102375.22;4996342;28;20030;-58
2021/10/07 03:30:08;;;;;;;3.10;1.45;;;;;;;20.24;52.04;102380.50;4996015;28;20035;-58
2021/10/07 03:32:33;;;;;;;2.40;1.33;;;;;;;20.22;52.11;102382.38;4995571;28;20030;-58
2021/10/07 03:34:59;;;;;;;2.33;1.20;;;;;;;20.22;52.00;102383.25;4996317;28;20030;-59
2021/10/07 03:37:27;;;;;;;2.67;1.25;;;;;;;20.23;51.99;102390.22;4995610;28;20084;-58
2021/10/07 03:39:52;;;;;;;2.53;1.33;;;;;;;20.22;52.16;102391.19;4994858;28;20054;-59
2021/10/07 03:42:17;;;;;;;3.65;1.60;;;;;;;20.23;52.06;102395.53;4995455;28;20034;-59
2021/10/07 03:44:43;;;;;;;3.28;1.30;;;;;;;20.22;51.99;102390.31;4996017;28;20054;-59
2021/10/07 03:47:11;;;;;;;2.72;1.40;;;;;;;20.21;51.97;102397.44;4994526;28;20034;-59
2021/10/07 03:49:36;;;;;;;2.78;1.40;;;;;;;20.20;52.05;102395.75;4995839;28;20080;-59
2021/10/07 03:52:05;;;;;;;2.22;1.20;;;;;;;20.19;52.04;102395.84;4995563;28;20066;-59
2021/10/07 03:54:30;;;;;;;2.65;1.38;;;;;;;20.17;52.08;102393.31;4994827;28;20030;-59
2021/10/07 03:56:56;;;;;;;2.70;1.30;;;;;;;20.19;51.98;102404.63;4995425;28;20030;-59
2021/10/07 03:59:24;;;;;;;1.83;1.07;;;;;;;20.19;51.90;102403.78;4995060;28;20038;-60
2021/10/07 04:01:49;;;;;;;2.60;1.20;;;;;;;20.18;51.86;102402.09;4994647;28;20644;-58
2021/10/07 04:04:17;;;;;;;2.55;1.33;;;;;;;20.18;52.10;102407.38;4995240;28;20049;-59
2021/10/07 04:06:42;;;;;;;2.17;1.15;;;;;;;20.19;52.13;102417.88;4994952;28;20022;-59
2021/10/07 04:09:10;;;;;;;2.03;1.10;;;;;;;20.19;52.05;102417.88;4994505;28;20374;-58
2021/10/07 04:11:35;;;;;;;3.15;1.42;;;;;;;20.18;52.32;102416.16;4995146;28;20804;-58
2021/10/07 04:14:01;;;;;;;2.40;1.17;;;;;;;20.16;52.06;102420.72;4994657;28;20018;-59
2021/10/07 04:16:26;;;;;;;2.42;1.27;;;;;;;20.17;52.07;102418.91;4994295;28;20606;-58
2021/10/07 04:18:51;;;;;;;2.47;1.20;;;;;;;20.17;52.10;102425.06;4994616;28;20030;-58
2021/10/07 04:21:24;;;;;;;2.50;1.30;;;;;;;20.19;52.18;102433.75;4994204;28;20100;-58
2021/10/07 04:23:49;;;;;;;2.53;1.30;;;;;;;20.19;51.74;102436.41;4994937;28;20030;-59
2021/10/07 04:26:15;;;;;;;2.42;1.23;;;;;;;20.19;51.93;102440.84;4994914;28;20386;-58
2021/10/07 04:28:40;;;;;;;2.20;1.13;;;;;;;20.18;51.88;102439.97;4994355;28;20066;-58
2021/10/07 04:31:05;;;;;;;1.75;1.10;;;;;;;20.17;51.95;102448.03;4994518;28;20030;-58
2021/10/07 04:33:30;;;;;;;2.50;1.17;;;;;;;20.16;51.56;102446.34;4994939;28;20038;-58
2021/10/07 04:35:56;;;;;;;3.00;1.23;;;;;;;20.14;51.91;102443.78;4994053;28;20292;-59
2021/10/07 04:38:21;;;;;;;2.35;1.23;;;;;;;20.16;51.97;102451.63;4994462;28;20265;-59
2021/10/07 04:40:46;;;;;;;2.60;1.42;;;;;;;20.14;52.11;102449.09;4995001;28;20455;-59
2021/10/07 04:43:11;;;;;;;3.60;1.30;;;;;;;20.16;51.94;102449.81;4993674;28;20026;-59
2021/10/07 04:45:37;;;;;;;2.60;1.25;;;;;;;20.15;52.09;102453.41;4994734;28;20272;-59
2021/10/07 04:48:02;;;;;;;2.00;1.13;;;;;;;20.14;52.16;102449.09;4994361;28;20026;-59
2021/10/07 04:50:28;;;;;;;2.85;1.48;;;;;;;20.14;52.02;102446.44;4993690;28;20441;-59
2021/10/07 04:52:53;;;;;;;3.00;1.25;;;;;;;20.14;51.81;102449.09;4994499;28;20448;-58
2021/10/07 04:55:21;;;;;;;3.55;1.42;;;;;;;20.14;51.81;102451.75;4994317;28;20033;-58
2021/10/07 04:57:47;;;;;;;2.97;1.40;;;;;;;20.14;52.05;102456.16;4993719;28;20505;-58
2021/10/07 05:00:12;;;;;;;2.53;1.10;;;;;;;20.13;51.84;102455.31;4994019;28;20030;-58
2021/10/07 05:02:39;;;;;;;2.25;1.17;;;;;;;20.13;51.96;102454.47;4994553;28;20644;-59
2021/10/07 05:05:08;;;;;;;2.45;1.33;;;;;;;20.12;51.84;102456.25;4993276;28;20467;-58
2021/10/07 05:07:34;;;;;;;2.47;1.17;;;;;;;20.13;51.99;102462.41;4994144;28;20040;-59
2021/10/07 05:09:59;;;;;;;2.83;1.20;;;;;;;20.11;51.96;102459.88;4994135;28;20026;-59
2021/10/07 05:12:25;;;;;;;2.20;1.30;;;;;;;20.11;51.98;102463.34;4993585;28;20045;-59
2021/10/07 05:14:50;;;;;;;2.60;1.40;;;;;;;20.11;51.97;102462.50;4994017;28;20157;-58
2021/10/07 05:17:15;;;;;;;3.00;1.40;;;;;;;20.12;52.03;102464.19;4993194;28;20038;-59
2021/10/07 05:19:40;;;;;;;2.58;1.38;;;;;;;20.10;51.92;102466.09;4993945;28;20121;-59
2021/10/07 05:22:06;;;;;;;2.67;1.30;;;;;;;20.09;51.84;102465.25;4993569;28;20031;-59
2021/10/07 05:24:31;;;;;;;2.13;1.20;;;;;;;20.09;52.11;102472.34;4993734;28;20752;-59
2021/10/07 05:26:57;;;;;;;2.47;1.30;;;;;;;20.11;52.10;102473.09;4993971;28;20125;-59
2021/10/07 05:29:22;;;;;;;2.22;1.20;;;;;;;20.14;52.80;102479.97;4993264;28;20034;-59
2021/10/07 05:31:50;;;;;;;2.40;1.20;;;;;;;20.20;52.54;102484.88;4993037;28;20022;-59
2021/10/07 05:34:16;;;;;;;2.78;1.10;;;;;;;20.24;52.42;102484.59;4993446;28;20458;-58
2021/10/07 05:36:44;;;;;;;1.58;0.98;;;;;;;20.29;52.38;102479.84;4994253;28;20026;-58
2021/10/07 05:39:10;;;;;;;1.58;0.90;;;;;;;20.37;52.10;102479.34;4993454;28;20525;-60
2021/10/07 05:41:36;;;;;;;15.57;1.73;;;;;;;20.46;52.16;102478.75;4993763;28;20073;-60
2021/10/07 05:44:09;;;;;;;2.75;1.30;;;;;;;20.54;51.26;102475.59;4993680;28;20391;-59
2021/10/07 05:46:37;;;;;;;2.25;1.10;;;;;;;20.63;51.36;102477.66;4992799;28;20419;-59
2021/10/07 05:49:04;;;;;;;2.53;1.30;;;;;;;20.69;51.05;102479.06;4993164;28;20110;-59
2021/10/07 05:51:30;;;;;;;3.35;1.20;;;;;;;20.77;51.12;102481.19;4993090;28;20043;-59
2021/10/07 05:53:55;;;;;;;3.08;1.00;;;;;;;20.84;50.66;102491.28;4992887;28;20448;-59
2021/10/07 05:56:21;;;;;;;2.40;1.00;;;;;;;20.89;50.77;102492.78;4993407;28;20548;-60
2021/10/07 05:58:46;;;;;;;3.03;1.10;;;;;;;20.91;50.71;102482.94;4993302;28;20406;-60
2021/10/07 06:01:11;;;;;;;3.90;1.27;;;;;;;20.92;50.69;102492.56;4992248;28;20264;-59
2021/10/07 06:03:37;;;;;;;2.05;0.93;;;;;;;20.91;51.04;102489.06;4993156;28;20287;-60
2021/10/07 06:06:02;;;;;;;2.15;1.00;;;;;;;20.97;50.70;102496.59;4993274;28;20046;-59
2021/10/07 06:08:27;;;;;;;2.92;1.33;;;;;;;21.02;50.29;102501.59;4992759;28;20168;-58
2021/10/07 06:10:53;;;;;;;2.58;1.20;;;;;;;21.05;50.69;102504.03;4993365;28;20049;-58
2021/10/07 06:13:18;;;;;;;2.58;1.15;;;;;;;21.11;50.46;102510.72;4992792;28;20378;-59
2021/10/07 06:15:43;;;;;;;3.30;1.15;;;;;;;21.15;50.49;102510.41;4992614;28;20046;-59
2021/10/07 06:18:09;;;;;;;2.17;1.02;;;;;;;21.16;50.35;102509.47;4992633;28;20446;-59
2021/10/07 06:20:35;;;;;;;1.92;1.00;;;;;;;21.15;50.46;102505.09;4992221;28;20474;-59
2021/10/07 06:23:06;;;;;;;2.72;1.30;;;;;;;21.21;50.50;102511.81;4993256;28;20085;-59
2021/10/07 06:25:34;;;;;;;2.60;1.08;;;;;;;21.24;50.28;102506.28;4993290;28;20104;-59
2021/10/07 06:28:07;;;;;;;2.78;1.67;;;;;;;21.30;50.23;102515.59;4992322;28;20026;-59
2021/10/07 06:30:33;;;;;;;2.27;1.00;;;;;;;21.33;50.28;102529.53;4993085;28;20034;-59
2021/10/07 06:32:59;;;;;;;3.17;1.10;;;;;;;21.36;50.32;102534.63;4992943;28;20039;-59
2021/10/07 06:35:31;;;;;;;2.28;1.00;;;;;;;21.41;50.21;102528.97;4992154;28;20022;-59
2021/10/07 06:37:56;;;;;;;2.35;1.00;;;;;;;21.46;50.01;102539.28;4992877;28;20450;-59
2021/10/07 06:40:22;;;;;;;2.38;1.20;;;;;;;21.47;50.32;102538.31;4993195;28;20096;-58
2021/10/07 06:42:47;;;;;;;3.05;1.20;;;;;;;21.49;50.18;102549.69;4996249;28;20023;-60
2021/10/07 06:45:13;;;;;;;3.80;1.10;;;;;;;21.48;50.26;102548.88;4996722;28;20421;-60
2021/10/07 06:47:39;;;;;;;2.47;1.20;;;;;;;21.47;50.00;102554.25;4996849;28;20069;-59
2021/10/07 06:50:08;;;;;;;2.40;1.05;;;;;;;21.47;50.22;102559.53;4995884;28;20077;-61
2021/10/07 06:52:33;;;;;;;3.58;1.25;;;;;;;21.45;50.40;102564.13;4997052;28;20046;-60
2021/10/07 06:55:03;;;;;;;5.03;1.35;;;;;;;21.44;50.70;102565.91;4996837;28;20034;-60
2021/10/07 06:57:33;;;;;;;2.97;1.30;;;;;;;21.42;50.56;102565.16;4996062;28;20039;-60
2021/10/07 06:59:59;;;;;;;4.03;1.02;;;;;;;21.40;50.93;102568.91;4996685;28;20027;-59
2021/10/07 07:02:24;;;;;;;3.50;1.30;;;;;;;21.34;50.89;102570.16;4996596;28;20385;-61
2021/10/07 07:04:49;;;;;;;3.20;1.33;;;;;;;21.27;51.10;102568.84;4995836;28;20423;-60
2021/10/07 07:07:14;;;;;;;3.50;1.30;;;;;;;21.22;51.39;102573.63;4996478;28;20030;-61
2021/10/07 07:09:40;;;;;;;2.73;1.23;;;;;;;21.18;51.44;102573.81;4996039;28;20806;-59
2021/10/07 07:12:08;;;;;;;4.35;1.50;;;;;;;21.20;51.32;102584.31;4996175;28;20291;-60
2021/10/07 07:14:35;;;;;;;3.97;1.40;;;;;;;21.15;51.63;102587.28;4996670;28;20018;-60
2021/10/07 07:17:00;;;;;;;4.80;1.48;;;;;;;21.12;51.76;102595.44;4996064;28;20023;-59
2021/10/07 07:19:26;;;;;;;3.80;1.27;;;;;;;21.08;52.01;102593.97;4996356;28;20109;-59
2021/10/07 07:21:51;;;;;;;5.43;1.83;;;;;;;21.06;51.93;102593.22;4996573;28;20367;-59
2021/10/07 07:24:16;;;;;;;3.77;1.50;;;;;;;21.06;52.11;102601.19;4995387;28;20045;-59
2021/10/07 07:26:42;;;;;;;3.45;1.58;;;;;;;21.10;51.97;102609.78;4996306;28;20366;-58
2021/10/07 07:29:07;;;;;;;7.95;1.88;;;;;;;21.11;51.96;102608.78;4995913;28;20093;-58
2021/10/07 07:31:35;;;;;;;4.73;1.47;;;;;;;21.07;51.89;102607.31;4995754;28;20373;-59
2021/10/07 07:34:03;;;;;;;3.08;1.30;;;;;;;21.07;52.19;102609.97;4996337;28;20276;-61
2021/10/07 07:36:28;;;;;;;4.00;1.45;;;;;;;21.08;52.07;102609.00;4996314;28;20077;-59
2021/10/07 07:38:54;;;;;;;4.18;1.50;;;;;;;21.12;52.16;102621.94;4995242;28;20046;-58
2021/10/07 07:41:19;;;;;;;4.50;1.65;;;;;;;21.20;51.95;102610.84;4994635;28;20037;-58
2021/10/07 07:43:45;;;;;;;3.03;1.40;;;;;;;21.25;51.70;102616.69;4996103;28;20030;-59
2021/10/07 07:46:18;;;;;;;3.97;1.33;;;;;;;21.33;51.64;102622.34;4995169;28;20491;-59
2021/10/07 07:48:48;;;;;;;4.90;1.42;;;;;;;21.33;51.63;102625.00;4997657;28;20110;-61
2021/10/07 07:51:14;;;;;;;5.05;1.77;;;;;;;21.24;51.84;102620.31;4995384;28;20124;-62
2021/10/07 07:53:39;;;;;;;3.15;1.30;;;;;;;21.19;52.02;102617.97;4996682;28;20098;-63
2021/10/07 07:56:05;;;;;;;3.90;1.35;;;;;;;21.24;52.37;102620.31;4997672;28;20116;-59
2021/10/07 07:58:30;;;;;;;6.60;1.70;;;;;;;21.30;52.39;102630.50;4996982;28;20026;-60
2021/10/07 08:00:55;;;;;;;4.40;1.40;;;;;;;21.32;52.10;102631.25;4995035;28;20038;-61
2021/10/07 08:03:25;;;;;;;4.50;1.20;;;;;;;21.34;51.98;102626.69;4998449;28;20042;-61
2021/10/07 08:05:50;;;;;;;4.22;1.50;;;;;;;21.43;52.02;102637.63;4998805;28;20513;-61
2021/10/07 08:08:16;;;;;;;4.10;1.30;;;;;;;21.47;51.96;102626.69;4997464;28;20038;-60
2021/10/07 08:10:41;;;;;;;4.63;1.33;;;;;;;21.50;51.79;102636.28;4996479;28;20097;-60
2021/10/07 08:13:06;;;;;;;3.67;1.23;;;;;;;21.47;51.73;102642.59;4994841;28;20050;-61
2021/10/07 08:15:32;;;;;;;3.05;1.20;;;;;;;21.44;51.77;102648.13;4995743;28;20294;-61
2021/10/07 08:17:57;;;;;;;3.50;1.30;;;;;;;21.45;51.90;102649.84;4998505;28;20470;-59
2021/10/07 08:20:22;;;;;;;4.47;1.40;;;;;;;21.43;51.99;102645.56;4994405;28;20073;-59
2021/10/07 08:22:49;;;;;;;4.03;1.17;;;;;;;21.40;52.19;102648.47;4995113;28;20027;-59
2021/10/07 08:25:16;;;;;;;4.10;1.10;;;;;;;21.38;52.19;102653.88;4994845;28;20030;-59
2021/10/07 08:27:42;;;;;;;4.22;1.30;;;;;;;21.35;52.16;102654.91;4994539;28;20177;-59
2021/10/07 08:30:10;;;;;;;3.15;1.30;;;;;;;21.33;51.99;102656.81;4994741;28;20018;-60
2021/10/07 08:32:36;;;;;;;5.63;1.33;;;;;;;21.31;52.21;102648.09;4995567;28;20036;-61
2021/10/07 08:35:04;;;;;;;3.40;1.45;;;;;;;21.40;52.00;102657.25;4998869;28;20033;-61
2021/10/07 08:37:30;;;;;;;4.10;1.60;;;;;;;21.43;52.19;102661.47;4995817;28;20061;-61
2021/10/07 08:39:55;;;;;;;5.57;1.50;;;;;;;21.45;52.36;102656.94;4995003;28;20073;-60
2021/10/07 08:42:21;;;;;;;3.80;1.40;;;;;;;21.51;52.19;102657.41;4993875;28;20046;-59
2021/10/07 08:44:50;;;;;;;3.97;1.20;;;;;;;21.56;52.08;102659.75;4995229;28;20030;-60
2021/10/07 08:47:19;;;;;;;4.70;1.40;;;;;;;21.61;51.93;102662.09;4995109;28;20072;-59
2021/10/07 08:49:48;;;;;;;5.72;1.63;;;;;;;21.55;51.91;102669.53;4994135;28;20050;-58
2021/10/07 08:52:14;;;;;;;5.65;1.33;;;;;;;21.48;52.09;102667.34;4994354;28;20055;-59
2021/10/07 08:54:39;;;;;;;3.17;1.30;;;;;;;21.41;52.12;102661.59;4994635;28;20053;-58
2021/10/07 08:57:08;;;;;;;5.22;1.55;;;;;;;21.35;52.48;102662.84;4993858;28;20118;-58
2021/10/07 08:59:36;;;;;;;4.57;1.42;;;;;;;21.34;52.45;102669.09;4994632;28;20042;-58
2021/10/07 09:02:06;;;;;;;5.43;1.45;;;;;;;21.34;52.56;102666.47;4994625;28;20034;-58
2021/10/07 09:04:42;;;;;;;4.47;1.30;;;;;;;21.30;52.65;102680.88;4993321;28;20076;-57
2021/10/07 09:07:09;;;;;;;4.15;1.50;;;;;;;21.27;52.72;102674.91;4994228;28;20114;-58
2021/10/07 09:09:40;;;;;;;3.83;1.27;;;;;;;21.23;52.72;102668.97;4993843;28;20049;-60
2021/10/07 09:12:08;;;;;;;2.85;1.33;;;;;;;21.21;52.75;102676.19;4994146;28;20045;-60
2021/10/07 09:14:42;;;;;;;3.78;1.42;;;;;;;21.19;53.06;102670.16;4994567;28;20018;-59
2021/10/07 09:17:10;;;;;;;3.50;1.20;;;;;;;21.17;53.08;102678.19;4993143;28;20558;-59
2021/10/07 09:19:40;;;;;;;2.75;1.10;;;;;;;21.19;53.13;102675.44;4994955;28;20060;-60
2021/10/07 09:22:15;;;;;;;3.67;1.67;;;;;;;21.18;53.18;102676.38;4993797;28;20080;-60
2021/10/07 09:24:46;;;;;;;5.78;1.45;;;;;;;21.18;52.95;102674.56;4993439;28;20039;-61
2021/10/07 09:27:13;;;;;;;4.80;1.60;;;;;;;21.17;53.13;102677.31;4993855;28;20062;-59
2021/10/07 09:29:47;;;;;;;2.47;1.30;;;;;;;21.14;53.32;102677.53;4993937;28;20022;-60
2021/10/07 09:32:12;;;;;;;3.33;1.42;;;;;;;21.11;53.35;102675.06;4993082;28;20037;-61
2021/10/07 09:35:02;;;;;;;4.85;1.30;;;;;;;21.09;53.51;102674.34;4993510;28;20034;-61
2021/10/07 09:37:31;;;;;;;3.85;1.23;;;;;;;21.08;53.71;102673.50;4988068;28;20034;-61
2021/10/07 09:40:09;;;;;;;4.60;1.30;;;;;;;21.08;53.74;102678.78;4994649;28;20419;-61
2021/10/07 09:42:38;;;;;;;2.83;1.30;;;;;;;21.20;53.44;102679.78;4994851;28;20038;-61
2021/10/07 09:45:16;;;;;;;5.53;1.55;;;;;;;21.29;53.23;102686.28;4993638;28;20109;-60
2021/10/07 09:47:44;;;;;;;5.43;1.60;;;;;;;21.37;53.16;102681.31;4994475;28;20038;-60
2021/10/07 09:50:22;;;;;;;5.05;1.55;;;;;;;21.47;52.76;102686.88;4993829;28;20033;-61
2021/10/07 09:52:53;;;;;;;3.60;1.60;;;;;;;21.53;52.70;102686.50;4993392;28;20022;-60
2021/10/07 09:55:23;;;;;;;4.80;1.60;;;;;;;21.59;52.59;102680.78;4994083;28;20081;-60
2021/10/07 09:57:59;;;;;;;6.55;2.38;;;;;;;21.58;52.55;102684.38;4994251;28;20133;-60
2021/10/07 10:00:28;;;;;;;3.28;1.70;;;;;;;21.55;52.76;102682.78;4994675;28;20117;-61
2021/10/07 10:03:01;;;;;;;4.65;1.48;;;;;;;21.49;52.74;102688.50;4994768;28;20478;-59
2021/10/07 10:05:28;;;;;;;4.80;1.50;;;;;;;21.44;53.04;102684.41;4992379;28;20046;-60
2021/10/07 10:07:54;;;;;;;6.70;2.47;;;;;;;21.39;53.04;102690.03;4993355;28;20036;-57
2021/10/07 10:10:19;;;;;;;5.15;1.60;;;;;;;21.34;53.23;102689.47;4993172;28;20038;-59
2021/10/07 10:12:46;;;;;;;4.13;1.58;;;;;;;21.31;53.25;102687.88;4992648;28;20085;-59
2021/10/07 10:15:12;;;;;;;7.55;1.70;;;;;;;21.27;53.36;102688.16;4993188;28;20026;-60
2021/10/07 10:17:38;;;;;;;6.13;1.88;;;;;;;21.22;53.42;102696.47;4993390;28;20022;-59
2021/10/07 10:20:09;;;;;;;4.78;1.55;;;;;;;21.19;53.67;102694.84;4992073;28;20320;-60
2021/10/07 10:22:40;;;;;;;3.40;1.70;;;;;;;21.13;53.95;102700.53;4993482;28;20046;-59
2021/10/07 10:25:05;;;;;;;13.18;1.88;;;;;;;21.09;54.14;102706.97;4992846;28;20045;-59
2021/10/07 10:27:48;;;;;;;4.80;1.58;;;;;;;21.04;54.04;102705.59;4992340;28;20038;-60
2021/10/07 10:30:33;;;;;;;3.72;1.65;;;;;;;20.98;54.25;102705.06;4992693;28;20048;-60
2021/10/07 10:33:01;;;;;;;4.05;1.70;;;;;;;20.96;54.40;102711.38;4993327;28;20037;-59
2021/10/07 10:35:29;;;;;;;4.63;1.80;;;;;;;20.93;54.36;102707.13;4992175;28;20398;-59
2021/10/07 10:37:56;;;;;;;4.45;1.90;;;;;;;20.94;54.42;102706.19;4992868;28;20572;-61
2021/10/07 10:40:22;;;;;;;5.82;2.40;;;;;;;20.95;54.31;102713.19;4992741;28;20117;-60
2021/10/07 10:43:07;;;;;;;4.05;1.77;;;;;;;20.94;54.34;102711.47;4992177;28;20038;-61
2021/10/07 10:45:32;;;;;;;8.32;1.75;;;;;;;20.96;54.39;102717.53;4992800;28;20081;-60
2021/10/07 10:47:57;;;;;;;5.65;1.98;;;;;;;20.98;54.45;102715.66;4992142;28;20541;-62
2021/10/07 10:50:24;;;;;;;4.50;1.80;;;;;;;21.04;54.13;102722.34;4990931;28;20046;-62
2021/10/07 10:52:54;;;;;;;4.53;1.73;;;;;;;21.10;53.72;102721.09;4992892;28;20294;-61
2021/10/07 10:55:27;;;;;;;6.57;2.10;;;;;;;21.16;53.60;102726.03;4991837;28;20022;-61
2021/10/07 10:58:06;;;;;;;5.43;1.80;;;;;;;21.19;53.72;102720.53;4992768;28;20113;-60
2021/10/07 11:00:34;;;;;;;4.90;1.67;;;;;;;21.24;53.48;102730.78;4992809;28;20062;-61
2021/10/07 11:03:13;;;;;;;5.10;1.73;;;;;;;21.28;53.43;102733.16;4991990;28;20122;-60
2021/10/07 11:06:01;;;;;;;3.70;1.60;;;;;;;21.35;52.98;102729.16;4992808;28;20490;-61
2021/10/07 11:08:27;;;;;;;3.85;1.58;;;;;;;21.37;52.93;102732.56;4992821;28;20030;-61
2021/10/07 11:10:54;;;;;;;4.47;1.55;;;;;;;21.38;52.98;102733.44;4992033;28;20064;-61
2021/10/07 11:13:26;;;;;;;4.65;1.42;;;;;;;21.37;53.08;102731.72;4992625;28;20031;-62
2021/10/07 11:15:56;;;;;;;5.82;1.52;;;;;;;21.36;53.15;102730.88;4992199;28;20026;-61
2021/10/07 11:18:32;;;;;;;4.45;1.50;;;;;;;21.34;53.11;102724.81;4992406;28;20097;-60
2021/10/07 11:21:01;;;;;;;3.55;1.38;;;;;;;21.34;53.32;102726.59;4993105;28;20085;-61
2021/10/07 11:23:29;;;;;;;4.28;1.30;;;;;;;21.33;53.47;102731.06;4991766;28;20066;-60
2021/10/07 11:25:56;;;;;;;3.80;1.80;;;;;;;21.32;53.11;102733.81;4993035;28;20033;-61
2021/10/07 11:28:33;;;;;;;4.28;1.50;;;;;;;21.33;53.14;102735.50;4996259;28;20030;-60
2021/10/07 11:31:11;;;;;;;3.90;1.60;;;;;;;21.33;52.97;102732.84;4995745;28;20023;-62
2021/10/07 11:33:39;;;;;;;4.72;1.88;;;;;;;21.32;53.11;102734.66;4996570;28;20030;-61